sensor_id;sensor_type;location;lat;lon;timestamp;pressure;altitude;pressure_sealevel;temperature;humidity
54306;BME280;66145;45.188;5.712;2023-08-07T00:00:24;99529.97;;;21.08;49.73
54306;BME280;66145;45.188;5.712;2023-08-07T00:02:49;99507.47;;;20.97;49.71
54306;BME280;66145;45.188;5.712;2023-08-07T00:05:15;99479.00;;;20.75;49.66
54306;BME280;66145;45.188;5.712;2023-08-07T00:07:42;99507.63;;;20.92;49.69
54306;BME280;66145;45.188;5.712;2023-08-07T00:10:08;99515.88;;;21.01;49.75
54306;BME280;66145;45.188;5.712;2023-08-07T00:12:33;99528.84;;;21.09;49.68
54306;BME280;66145;45.188;5.712;2023-08-07T00:14:58;99528.50;;;21.10;50.31
54306;BME280;66145;45.188;5.712;2023-08-07T00:17:25;99520.72;;;21.12;50.68
54306;BME280;66145;45.188;5.712;2023-08-07T00:19:50;99511.00;;;20.97;50.77
54306;BME280;66145;45.188;5.712;2023-08-07T00:22:15;99527.84;;;21.05;50.96
54306;BME280;66145;45.188;5.712;2023-08-07T00:24:40;99532.72;;;21.08;51.12
54306;BME280;66145;45.188;5.712;2023-08-07T00:27:06;99530.13;;;21.11;50.87
54306;BME280;66145;45.188;5.712;2023-08-07T00:29:35;99520.72;;;21.04;51.14
54306;BME280;66145;45.188;5.712;2023-08-07T00:32:00;99523.47;;;21.12;51.61
54306;BME280;66145;45.188;5.712;2023-08-07T00:34:25;99526.25;;;21.12;51.45
54306;BME280;66145;45.188;5.712;2023-08-07T00:36:50;99509.72;;;21.04;51.43
54306;BME280;66145;45.188;5.712;2023-08-07T00:39:16;99531.41;;;21.14;51.52
54306;BME280;66145;45.188;5.712;2023-08-07T00:41:41;99514.59;;;21.07;51.71
54306;BME280;66145;45.188;5.712;2023-08-07T00:44:07;99519.75;;;21.08;51.74
54306;BME280;66145;45.188;5.712;2023-08-07T00:46:32;99516.03;;;21.13;51.72
54306;BME280;66145;45.188;5.712;2023-08-07T00:48:57;99512.47;;;21.12;52.02
54306;BME280;66145;45.188;5.712;2023-08-07T00:51:23;99500.66;;;21.12;51.88
54306;BME280;66145;45.188;5.712;2023-08-07T00:53:49;99509.41;;;21.14;52.12
54306;BME280;66145;45.188;5.712;2023-08-07T00:56:15;99493.72;;;21.06;51.73
54306;BME280;66145;45.188;5.712;2023-08-07T00:58:41;99501.47;;;21.12;51.78
54306;BME280;66145;45.188;5.712;2023-08-07T01:01:07;99490.16;;;21.05;51.90
54306;BME280;66145;45.188;5.712;2023-08-07T01:03:32;99505.22;;;21.17;52.28
54306;BME280;66145;45.188;5.712;2023-08-07T01:05:58;99492.59;;;21.07;52.26
54306;BME280;66145;45.188;5.712;2023-08-07T01:08:27;99505.38;;;21.11;52.11
54306;BME280;66145;45.188;5.712;2023-08-07T01:13:39;99509.41;;;21.14;52.05
54306;BME280;66145;45.188;5.712;2023-08-07T01:16:12;99511.03;;;21.15;52.29
54306;BME280;66145;45.188;5.712;2023-08-07T01:18:39;99503.59;;;21.16;52.36
54306;BME280;66145;45.188;5.712;2023-08-07T01:21:06;99496.97;;;21.08;52.20
54306;BME280;66145;45.188;5.712;2023-08-07T01:23:31;99510.22;;;21.15;52.15
54306;BME280;66145;45.188;5.712;2023-08-07T01:25:56;99513.47;;;21.17;52.20
54306;BME280;66145;45.188;5.712;2023-08-07T01:28:38;99491.47;;;21.08;52.27
54306;BME280;66145;45.188;5.712;2023-08-07T01:31:10;99489.03;;;21.06;52.42
54306;BME280;66145;45.188;5.712;2023-08-07T01:33:46;99499.03;;;21.11;52.60
54306;BME280;66145;45.188;5.712;2023-08-07T01:36:14;99484.16;;;21.03;52.63
54306;BME280;66145;45.188;5.712;2023-08-07T01:38:41;99494.66;;;21.10;52.81
54306;BME280;66145;45.188;5.712;2023-08-07T01:41:08;99514.09;;;21.22;52.44
54306;BME280;66145;45.188;5.712;2023-08-07T01:43:34;99511.16;;;21.19;52.51
54306;BME280;66145;45.188;5.712;2023-08-07T01:45:59;99504.09;;;21.09;52.28
54306;BME280;66145;45.188;5.712;2023-08-07T01:48:25;99501.34;;;21.09;52.56
54306;BME280;66145;45.188;5.712;2023-08-07T01:50:52;99514.75;;;21.19;52.58
54306;BME280;66145;45.188;5.712;2023-08-07T01:53:17;99500.00;;;21.15;52.65
54306;BME280;66145;45.188;5.712;2023-08-07T01:55:43;99512.00;;;21.19;52.59
54306;BME280;66145;45.188;5.712;2023-08-07T01:58:08;99502.75;;;21.15;52.61
54306;BME280;66145;45.188;5.712;2023-08-07T02:00:33;99510.03;;;21.20;52.73
54306;BME280;66145;45.188;5.712;2023-08-07T02:02:59;99506.50;;;21.19;52.82
54306;BME280;66145;45.188;5.712;2023-08-07T02:05:24;99499.53;;;21.13;52.66
54306;BME280;66145;45.188;5.712;2023-08-07T02:07:49;99499.22;;;21.15;52.70
54306;BME280;66145;45.188;5.712;2023-08-07T02:10:15;99497.41;;;21.10;52.68
54306;BME280;66145;45.188;5.712;2023-08-07T02:12:40;99514.59;;;21.16;52.77
54306;BME280;66145;45.188;5.712;2023-08-07T02:15:06;99512.31;;;21.18;52.37
54306;BME280;66145;45.188;5.712;2023-08-07T02:17:31;99518.78;;;21.13;52.71
54306;BME280;66145;45.188;5.712;2023-08-07T02:19:58;99521.72;;;21.17;52.76
54306;BME280;66145;45.188;5.712;2023-08-07T02:22:23;99512.47;;;21.12;52.95
54306;BME280;66145;45.188;5.712;2023-08-07T02:24:48;99517.34;;;21.16;52.89
54306;BME280;66145;45.188;5.712;2023-08-07T02:27:14;99498.88;;;21.07;52.85
54306;BME280;66145;45.188;5.712;2023-08-07T02:29:39;99514.41;;;21.21;52.39
54306;BME280;66145;45.188;5.712;2023-08-07T02:32:05;99514.25;;;21.17;52.67
54306;BME280;66145;45.188;5.712;2023-08-07T02:34:30;99514.09;;;21.22;53.01
54306;BME280;66145;45.188;5.712;2023-08-07T02:36:56;99509.09;;;21.16;52.77
54306;BME280;66145;45.188;5.712;2023-08-07T02:39:22;99521.22;;;21.23;52.80
54306;BME280;66145;45.188;5.712;2023-08-07T02:41:47;99512.47;;;21.21;52.95
54306;BME280;66145;45.188;5.712;2023-08-07T02:44:13;99504.88;;;21.09;53.02
54306;BME280;66145;45.188;5.712;2023-08-07T02:46:38;99517.16;;;21.21;53.13
54306;BME280;66145;45.188;5.712;2023-08-07T02:49:04;99484.00;;;21.00;52.91
54306;BME280;66145;45.188;5.712;2023-08-07T02:51:30;99516.38;;;21.20;53.13
54306;BME280;66145;45.188;5.712;2023-08-07T02:53:55;99496.28;;;21.11;53.19
54306;BME280;66145;45.188;5.712;2023-08-07T02:56:21;99482.22;;;21.04;53.04
54306;BME280;66145;45.188;5.712;2023-08-07T02:58:46;99509.59;;;21.18;53.01
54306;BME280;66145;45.188;5.712;2023-08-07T03:01:12;99493.88;;;21.09;53.07
54306;BME280;66145;45.188;5.712;2023-08-07T03:03:38;99515.88;;;21.27;52.63
54306;BME280;66145;45.188;5.712;2023-08-07T03:06:03;99517.97;;;21.30;52.83
54306;BME280;66145;45.188;5.712;2023-08-07T03:08:29;99521.38;;;21.36;52.83
54306;BME280;66145;45.188;5.712;2023-08-07T03:10:56;99525.25;;;21.35;52.62
54306;BME280;66145;45.188;5.712;2023-08-07T03:13:22;99519.91;;;21.30;52.72
54306;BME280;66145;45.188;5.712;2023-08-07T03:15:48;99481.09;;;21.14;52.59
54306;BME280;66145;45.188;5.712;2023-08-07T03:18:16;99511.84;;;21.33;52.77
54306;BME280;66145;45.188;5.712;2023-08-07T03:20:42;99510.22;;;21.23;53.14
54306;BME280;66145;45.188;5.712;2023-08-07T03:23:11;99516.16;;;21.34;52.69
54306;BME280;66145;45.188;5.712;2023-08-07T03:25:36;99516.16;;;21.34;52.71
54306;BME280;66145;45.188;5.712;2023-08-07T03:28:02;99511.84;;;21.24;52.81
54306;BME280;66145;45.188;5.712;2023-08-07T03:30:28;99533.84;;;21.33;52.99
54306;BME280;66145;45.188;5.712;2023-08-07T03:32:53;99526.88;;;21.27;53.12
54306;BME280;66145;45.188;5.712;2023-08-07T03:35:18;99525.91;;;21.32;52.85
54306;BME280;66145;45.188;5.712;2023-08-07T03:37:44;99524.13;;;21.27;52.83
54306;BME280;66145;45.188;5.712;2023-08-07T03:40:09;99517.66;;;21.23;52.93
54306;BME280;66145;45.188;5.712;2023-08-07T03:42:35;99529.47;;;21.23;53.15
54306;BME280;66145;45.188;5.712;2023-08-07T03:45:00;99527.84;;;21.22;53.31
54306;BME280;66145;45.188;5.712;2023-08-07T03:47:26;99514.91;;;21.14;52.97
54306;BME280;66145;45.188;5.712;2023-08-07T03:49:51;99509.88;;;21.16;53.15
54306;BME280;66145;45.188;5.712;2023-08-07T03:52:16;99517.84;;;21.18;53.10
54306;BME280;66145;45.188;5.712;2023-08-07T03:54:43;99516.66;;;21.19;53.06
54306;BME280;66145;45.188;5.712;2023-08-07T03:57:08;99513.47;;;21.17;52.96
54306;BME280;66145;45.188;5.712;2023-08-07T03:59:35;99511.16;;;21.10;53.05
54306;BME280;66145;45.188;5.712;2023-08-07T04:02:00;99512.00;;;21.10;52.95
54306;BME280;66145;45.188;5.712;2023-08-07T04:04:25;99522.50;;;21.17;53.14
54306;BME280;66145;45.188;5.712;2023-08-07T04:06:51;99511.34;;;21.05;53.10
54306;BME280;66145;45.188;5.712;2023-08-07T04:09:16;99489.03;;;20.97;52.74
54306;BME280;66145;45.188;5.712;2023-08-07T04:11:42;99514.41;;;21.12;53.08
54306;BME280;66145;45.188;5.712;2023-08-07T04:14:07;99514.59;;;21.24;52.97
54306;BME280;66145;45.188;5.712;2023-08-07T04:16:33;99495.50;;;21.10;52.75
54306;BME280;66145;45.188;5.712;2023-08-07T04:18:58;99515.72;;;21.23;52.72
54306;BME280;66145;45.188;5.712;2023-08-07T04:21:23;99520.88;;;21.25;52.82
54306;BME280;66145;45.188;5.712;2023-08-07T04:23:49;99508.91;;;21.21;52.60
54306;BME280;66145;45.188;5.712;2023-08-07T04:26:14;99506.66;;;21.14;52.72
54306;BME280;66145;45.188;5.712;2023-08-07T04:28:40;99516.03;;;21.22;52.65
54306;BME280;66145;45.188;5.712;2023-08-07T04:31:05;99516.03;;;21.22;52.60
54306;BME280;66145;45.188;5.712;2023-08-07T04:33:30;99502.63;;;21.11;52.75
54306;BME280;66145;45.188;5.712;2023-08-07T04:35:56;99509.25;;;21.19;52.87
54306;BME280;66145;45.188;5.712;2023-08-07T04:38:21;99496.47;;;21.15;52.88
54306;BME280;66145;45.188;5.712;2023-08-07T04:40:47;99499.84;;;21.20;52.88
54306;BME280;66145;45.188;5.712;2023-08-07T04:43:15;99493.53;;;21.11;52.64
54306;BME280;66145;45.188;5.712;2023-08-07T04:45:42;99510.72;;;21.17;52.62
54306;BME280;66145;45.188;5.712;2023-08-07T04:48:07;99494.22;;;21.08;52.87
54306;BME280;66145;45.188;5.712;2023-08-07T04:50:33;99513.63;;;21.20;52.73
54306;BME280;66145;45.188;5.712;2023-08-07T04:52:59;99502.28;;;21.04;52.85
54306;BME280;66145;45.188;5.712;2023-08-07T04:55:25;99526.09;;;21.18;52.85
54306;BME280;66145;45.188;5.712;2023-08-07T04:57:50;99517.66;;;21.14;52.72
54306;BME280;66145;45.188;5.712;2023-08-07T05:00:19;99527.69;;;21.19;52.68
54306;BME280;66145;45.188;5.712;2023-08-07T05:02:44;99541.13;;;21.20;53.00
54306;BME280;66145;45.188;5.712;2023-08-07T05:05:10;99528.00;;;21.17;52.83
54306;BME280;66145;45.188;5.712;2023-08-07T05:07:35;99524.63;;;21.20;52.85
54306;BME280;66145;45.188;5.712;2023-08-07T05:10:04;99522.16;;;21.19;52.60
54306;BME280;66145;45.188;5.712;2023-08-07T05:12:29;99523.63;;;21.16;52.68
54306;BME280;66145;45.188;5.712;2023-08-07T05:14:55;99528.00;;;21.17;52.67
54306;BME280;66145;45.188;5.712;2023-08-07T05:17:20;99530.75;;;21.17;52.60
54306;BME280;66145;45.188;5.712;2023-08-07T05:19:45;99527.84;;;21.14;52.87
54306;BME280;66145;45.188;5.712;2023-08-07T05:22:11;99532.22;;;21.15;52.78
54306;BME280;66145;45.188;5.712;2023-08-07T05:24:36;99529.97;;;21.17;52.79
54306;BME280;66145;45.188;5.712;2023-08-07T05:27:13;99535.47;;;21.17;52.86
54306;BME280;66145;45.188;5.712;2023-08-07T05:29:38;99538.69;;;21.19;52.82
54306;BME280;66145;45.188;5.712;2023-08-07T05:32:13;99531.59;;;21.18;52.57
54306;BME280;66145;45.188;5.712;2023-08-07T05:34:39;99492.41;;;20.94;52.70
54306;BME280;66145;45.188;5.712;2023-08-07T05:37:06;99533.03;;;21.15;52.85
54306;BME280;66145;45.188;5.712;2023-08-07T05:39:32;99527.53;;;21.06;52.98
54306;BME280;66145;45.188;5.712;2023-08-07T05:41:57;99538.03;;;21.13;52.78
54306;BME280;66145;45.188;5.712;2023-08-07T05:44:23;99540.16;;;21.16;52.82
54306;BME280;66145;45.188;5.712;2023-08-07T05:46:49;99542.75;;;21.12;52.65
54306;BME280;66145;45.188;5.712;2023-08-07T05:49:14;99520.41;;;21.05;52.71
54306;BME280;66145;45.188;5.712;2023-08-07T05:51:40;99496.63;;;20.92;52.77
54306;BME280;66145;45.188;5.712;2023-08-07T05:54:05;99543.53;;;21.22;52.68
54306;BME280;66145;45.188;5.712;2023-08-07T05:56:30;99537.88;;;21.18;52.48
54306;BME280;66145;45.188;5.712;2023-08-07T05:58:56;99522.34;;;21.14;52.67
54306;BME280;66145;45.188;5.712;2023-08-07T06:01:21;99555.66;;;21.21;52.66
54306;BME280;66145;45.188;5.712;2023-08-07T06:03:47;99559.41;;;21.25;52.59
54306;BME280;66145;45.188;5.712;2023-08-07T06:06:12;99519.59;;;21.05;52.57
54306;BME280;66145;45.188;5.712;2023-08-07T06:08:38;99535.28;;;21.13;52.49
54306;BME280;66145;45.188;5.712;2023-08-07T06:11:03;99549.03;;;21.22;52.75
54306;BME280;66145;45.188;5.712;2023-08-07T06:13:30;99548.25;;;21.12;52.53
54306;BME280;66145;45.188;5.712;2023-08-07T06:15:55;99560.03;;;21.22;52.43
54306;BME280;66145;45.188;5.712;2023-08-07T06:18:21;99553.41;;;21.14;52.57
54306;BME280;66145;45.188;5.712;2023-08-07T06:20:46;99566.03;;;21.24;52.86
54306;BME280;66145;45.188;5.712;2023-08-07T06:23:12;99566.38;;;21.22;52.84
54306;BME280;66145;45.188;5.712;2023-08-07T06:25:37;99562.47;;;21.15;52.70
54306;BME280;66145;45.188;5.712;2023-08-07T06:28:03;99567.34;;;21.18;53.03
54306;BME280;66145;45.188;5.712;2023-08-07T06:30:30;99553.91;;;21.16;52.74
54306;BME280;66145;45.188;5.712;2023-08-07T06:32:55;99571.69;;;21.19;52.90
54306;BME280;66145;45.188;5.712;2023-08-07T06:35:21;99543.88;;;21.11;53.07
54306;BME280;66145;45.188;5.712;2023-08-07T06:37:46;99562.00;;;21.21;53.07
54306;BME280;66145;45.188;5.712;2023-08-07T06:40:11;99569.75;;;21.19;53.16
54306;BME280;66145;45.188;5.712;2023-08-07T06:42:37;99561.66;;;21.23;52.87
54306;BME280;66145;45.188;5.712;2023-08-07T06:45:02;99555.03;;;21.24;53.08
54306;BME280;66145;45.188;5.712;2023-08-07T06:47:28;99566.53;;;21.26;52.98
54306;BME280;66145;45.188;5.712;2023-08-07T06:49:53;99547.59;;;21.16;52.98
54306;BME280;66145;45.188;5.712;2023-08-07T06:52:19;99538.22;;;21.08;53.08
54306;BME280;66145;45.188;5.712;2023-08-07T06:54:44;99556.16;;;21.23;53.00
54306;BME280;66145;45.188;5.712;2023-08-07T06:57:09;99552.75;;;21.26;53.06
54306;BME280;66145;45.188;5.712;2023-08-07T06:59:35;99541.59;;;21.22;52.89
54306;BME280;66145;45.188;5.712;2023-08-07T07:02:00;99549.38;;;21.29;53.03
54306;BME280;66145;45.188;5.712;2023-08-07T07:04:25;99543.03;;;21.20;53.11
54306;BME280;66145;45.188;5.712;2023-08-07T07:06:51;99548.72;;;21.23;52.50
54306;BME280;66145;45.188;5.712;2023-08-07T07:09:16;99564.41;;;21.32;53.16
54306;BME280;66145;45.188;5.712;2023-08-07T07:11:43;99558.13;;;21.31;53.07
54306;BME280;66145;45.188;5.712;2023-08-07T07:14:09;99554.22;;;21.23;53.25
54306;BME280;66145;45.188;5.712;2023-08-07T07:16:34;99565.72;;;21.17;53.26
54306;BME280;66145;45.188;5.712;2023-08-07T07:19:01;99549.53;;;21.06;53.28
54306;BME280;66145;45.188;5.712;2023-08-07T07:21:26;99556.34;;;21.09;53.11
54306;BME280;66145;45.188;5.712;2023-08-07T07:23:51;99549.03;;;20.95;53.33
54306;BME280;66145;45.188;5.712;2023-08-07T07:26:17;99562.28;;;21.02;53.06
54306;BME280;66145;45.188;5.712;2023-08-07T07:28:42;99537.38;;;20.99;53.13
54306;BME280;66145;45.188;5.712;2023-08-07T07:31:08;99550.00;;;21.00;53.12
54306;BME280;66145;45.188;5.712;2023-08-07T07:33:36;99529.31;;;20.85;53.15
54306;BME280;66145;45.188;5.712;2023-08-07T07:36:02;99556.78;;;21.02;52.99
54306;BME280;66145;45.188;5.712;2023-08-07T07:38:28;99545.47;;;20.95;52.77
54306;BME280;66145;45.188;5.712;2023-08-07T07:40:53;99547.09;;;20.96;52.91
54306;BME280;66145;45.188;5.712;2023-08-07T07:43:22;99541.75;;;20.91;53.21
54306;BME280;66145;45.188;5.712;2023-08-07T07:45:47;99547.41;;;20.94;53.25
54306;BME280;66145;45.188;5.712;2023-08-07T07:48:12;99540.47;;;20.88;52.95
54306;BME280;66145;45.188;5.712;2023-08-07T07:50:38;99526.56;;;20.85;53.02
54306;BME280;66145;45.188;5.712;2023-08-07T07:53:03;99544.34;;;20.96;52.57
54306;BME280;66145;45.188;5.712;2023-08-07T07:55:28;99541.09;;;20.94;52.94
54306;BME280;66145;45.188;5.712;2023-08-07T07:57:54;99500.28;;;20.70;52.87
54306;BME280;66145;45.188;5.712;2023-08-07T08:00:20;99526.88;;;20.92;52.83
54306;BME280;66145;45.188;5.712;2023-08-07T08:02:45;99536.41;;;21.03;52.68
54306;BME280;66145;45.188;5.712;2023-08-07T08:05:11;99532.22;;;20.97;52.74
54306;BME280;66145;45.188;5.712;2023-08-07T08:07:38;99527.69;;;20.92;52.77
54306;BME280;66145;45.188;5.712;2023-08-07T08:10:06;99505.16;;;20.73;52.74
54306;BME280;66145;45.188;5.712;2023-08-07T08:12:32;99537.06;;;20.91;52.85
54306;BME280;66145;45.188;5.712;2023-08-07T08:14:57;99528.50;;;20.93;52.67
54306;BME280;66145;45.188;5.712;2023-08-07T08:17:23;99506.28;;;20.72;52.82
54306;BME280;66145;45.188;5.712;2023-08-07T08:19:48;99547.25;;;20.91;52.76
54306;BME280;66145;45.188;5.712;2023-08-07T08:22:13;99522.50;;;20.82;52.80
54306;BME280;66145;45.188;5.712;2023-08-07T08:24:39;99533.84;;;20.89;53.11
54306;BME280;66145;45.188;5.712;2023-08-07T08:27:04;99534.97;;;20.88;53.16
54306;BME280;66145;45.188;5.712;2023-08-07T08:29:30;99540.94;;;20.90;53.14
54306;BME280;66145;45.188;5.712;2023-08-07T08:31:55;99510.31;;;20.74;52.87
54306;BME280;66145;45.188;5.712;2023-08-07T08:34:21;99539.63;;;20.88;52.86
54306;BME280;66145;45.188;5.712;2023-08-07T08:36:47;99524.59;;;20.76;52.84
54306;BME280;66145;45.188;5.712;2023-08-07T08:39:13;99522.97;;;20.75;53.13
54306;BME280;66145;45.188;5.712;2023-08-07T08:41:39;99546.59;;;20.85;53.15
54306;BME280;66145;45.188;5.712;2023-08-07T08:44:07;99529.31;;;20.85;53.12
54306;BME280;66145;45.188;5.712;2023-08-07T08:46:33;99528.63;;;20.79;52.98
54306;BME280;66145;45.188;5.712;2023-08-07T08:49:01;99521.84;;;20.76;53.06
54306;BME280;66145;45.188;5.712;2023-08-07T08:51:29;99525.56;;;20.80;53.05
54306;BME280;66145;45.188;5.712;2023-08-07T08:53:56;99534.63;;;20.81;53.07
54306;BME280;66145;45.188;5.712;2023-08-07T08:56:22;99527.16;;;20.73;53.22
54306;BME280;66145;45.188;5.712;2023-08-07T08:58:50;99510.78;;;20.67;53.39
54306;BME280;66145;45.188;5.712;2023-08-07T09:01:17;99527.94;;;20.73;53.22
54306;BME280;66145;45.188;5.712;2023-08-07T09:03:44;99532.31;;;20.74;53.10
54306;BME280;66145;45.188;5.712;2023-08-07T09:06:11;99525.19;;;20.73;53.13
54306;BME280;66145;45.188;5.712;2023-08-07T09:08:42;99539.63;;;20.79;53.01
54306;BME280;66145;45.188;5.712;2023-08-07T09:11:08;99522.66;;;20.77;53.43
54306;BME280;66145;45.188;5.712;2023-08-07T09:13:36;99533.81;;;20.80;53.31
54306;BME280;66145;45.188;5.712;2023-08-07T09:16:02;99535.59;;;20.76;52.98
54306;BME280;66145;45.188;5.712;2023-08-07T09:18:29;99528.56;;;20.70;53.04
54306;BME280;66145;45.188;5.712;2023-08-07T09:20:54;99546.25;;;20.78;53.07
54306;BME280;66145;45.188;5.712;2023-08-07T09:23:23;99518.56;;;20.65;52.76
54306;BME280;66145;45.188;5.712;2023-08-07T09:25:59;99524.25;;;20.69;52.98
54306;BME280;66145;45.188;5.712;2023-08-07T09:28:24;99534.06;;;20.70;52.81
54306;BME280;66145;45.188;5.712;2023-08-07T09:30:52;99526.00;;;20.65;52.50
54306;BME280;66145;45.188;5.712;2023-08-07T09:33:28;99531.50;;;20.65;52.49
54306;BME280;66145;45.188;5.712;2023-08-07T09:36:01;99530.38;;;20.66;52.58
54306;BME280;66145;45.188;5.712;2023-08-07T09:38:30;99537.69;;;20.79;51.31
54306;BME280;66145;45.188;5.712;2023-08-07T09:40:58;99531.06;;;20.80;51.31
54306;BME280;66145;45.188;5.712;2023-08-07T09:43:24;99535.25;;;20.78;50.77
54306;BME280;66145;45.188;5.712;2023-08-07T09:45:49;99529.41;;;20.71;50.90
54306;BME280;66145;45.188;5.712;2023-08-07T09:48:24;99529.75;;;20.69;50.48
54306;BME280;66145;45.188;5.712;2023-08-07T09:50:51;99491.69;;;20.54;49.66
54306;BME280;66145;45.188;5.712;2023-08-07T09:53:16;99549.13;;;20.73;50.18
54306;BME280;66145;45.188;5.712;2023-08-07T09:55:41;99549.63;;;20.75;50.03
54306;BME280;66145;45.188;5.712;2023-08-07T09:58:08;99524.75;;;20.80;50.64
54306;BME280;66145;45.188;5.712;2023-08-07T10:00:37;99540.97;;;20.99;50.26
54306;BME280;66145;45.188;5.712;2023-08-07T10:03:03;99523.16;;;21.05;50.38
54306;BME280;66145;45.188;5.712;2023-08-07T10:05:30;99544.66;;;21.21;50.65
54306;BME280;66145;45.188;5.712;2023-08-07T10:07:56;99521.03;;;21.20;50.57
54306;BME280;66145;45.188;5.712;2023-08-07T10:10:22;99518.63;;;21.18;50.71
54306;BME280;66145;45.188;5.712;2023-08-07T10:12:51;99511.50;;;21.17;50.49
54306;BME280;66145;45.188;5.712;2023-08-07T10:15:17;99521.38;;;21.27;48.79
54306;BME280;66145;45.188;5.712;2023-08-07T10:17:43;99535.44;;;21.34;49.03
54306;BME280;66145;45.188;5.712;2023-08-07T10:20:09;99527.84;;;21.31;48.57
54306;BME280;66145;45.188;5.712;2023-08-07T10:22:34;99531.09;;;21.33;48.40
54306;BME280;66145;45.188;5.712;2023-08-07T10:25:03;99518.91;;;21.34;48.21
54306;BME280;66145;45.188;5.712;2023-08-07T10:27:31;99519.41;;;21.36;48.17
54306;BME280;66145;45.188;5.712;2023-08-07T10:30:00;99502.91;;;21.27;48.20
54306;BME280;66145;45.188;5.712;2023-08-07T10:32:27;99502.41;;;21.34;47.70
54306;BME280;66145;45.188;5.712;2023-08-07T10:34:53;99504.38;;;21.34;47.77
54306;BME280;66145;45.188;5.712;2023-08-07T10:37:37;99488.38;;;21.27;47.31
54306;BME280;66145;45.188;5.712;2023-08-07T10:40:04;99504.84;;;21.36;47.17
54306;BME280;66145;45.188;5.712;2023-08-07T10:45:22;99492.72;;;21.37;47.19
54306;BME280;66145;45.188;5.712;2023-08-07T10:50:32;99484.97;;;21.30;46.95
54306;BME280;66145;45.188;5.712;2023-08-07T10:53:02;99506.78;;;21.44;46.99
54306;BME280;66145;45.188;5.712;2023-08-07T10:55:31;99506.47;;;21.46;47.15
54306;BME280;66145;45.188;5.712;2023-08-07T10:57:57;99512.44;;;21.56;46.71
54306;BME280;66145;45.188;5.712;2023-08-07T11:00:26;99492.06;;;21.49;46.78
54306;BME280;66145;45.188;5.712;2023-08-07T11:02:53;99477.63;;;21.52;46.84
54306;BME280;66145;45.188;5.712;2023-08-07T11:05:18;99493.84;;;21.62;46.89
54306;BME280;66145;45.188;5.712;2023-08-07T11:07:45;99487.38;;;21.40;46.95
54306;BME280;66145;45.188;5.712;2023-08-07T11:10:13;99494.47;;;21.41;47.23
54306;BME280;66145;45.188;5.712;2023-08-07T11:12:40;99502.41;;;21.34;47.08
54306;BME280;66145;45.188;5.712;2023-08-07T11:15:05;99487.09;;;21.16;48.38
54306;BME280;66145;45.188;5.712;2023-08-07T11:17:31;99487.25;;;21.19;47.15
54306;BME280;66145;45.188;5.712;2023-08-07T11:19:56;99489.84;;;21.16;48.60
54306;BME280;66145;45.188;5.712;2023-08-07T11:22:22;99482.53;;;21.02;49.32
54306;BME280;66145;45.188;5.712;2023-08-07T11:24:50;99472.69;;;20.92;49.19
54306;BME280;66145;45.188;5.712;2023-08-07T11:27:16;99493.09;;;21.09;49.58
54306;BME280;66145;45.188;5.712;2023-08-07T11:29:41;99490.16;;;21.05;49.35
54306;BME280;66145;45.188;5.712;2023-08-07T11:32:08;99477.88;;;21.03;48.74
54306;BME280;66145;45.188;5.712;2023-08-07T11:34:33;99456.66;;;20.94;47.53
54306;BME280;66145;45.188;5.712;2023-08-07T11:36:58;99469.94;;;21.01;47.85
54306;BME280;66145;45.188;5.712;2023-08-07T11:39:25;99464.91;;;20.94;48.84
54306;BME280;66145;45.188;5.712;2023-08-07T11:41:51;99472.22;;;20.90;48.98
54306;BME280;66145;45.188;5.712;2023-08-07T11:44:17;99478.66;;;21.03;47.61
54306;BME280;66145;45.188;5.712;2023-08-07T11:46:43;99472.69;;;21.01;47.63
54306;BME280;66145;45.188;5.712;2023-08-07T11:49:08;99470.41;;;21.03;48.53
54306;BME280;66145;45.188;5.712;2023-08-07T11:51:35;99466.06;;;20.93;48.62
54306;BME280;66145;45.188;5.712;2023-08-07T11:54:01;99474.13;;;20.99;47.90
54306;BME280;66145;45.188;5.712;2023-08-07T11:56:27;99471.88;;;21.01;47.86
54306;BME280;66145;45.188;5.712;2023-08-07T11:58:53;99475.75;;;21.00;48.08
54306;BME280;66145;45.188;5.712;2023-08-07T12:01:23;99471.38;;;20.99;48.11
54306;BME280;66145;45.188;5.712;2023-08-07T12:06:29;99444.22;;;20.79;48.59
54306;BME280;66145;45.188;5.712;2023-08-07T12:08:56;99455.53;;;20.87;48.25
54306;BME280;66145;45.188;5.712;2023-08-07T12:11:22;99463.97;;;20.90;48.50
54306;BME280;66145;45.188;5.712;2023-08-07T12:13:48;99476.88;;;20.90;48.08
54306;BME280;66145;45.188;5.712;2023-08-07T12:16:15;99442.13;;;20.76;47.65
54306;BME280;66145;45.188;5.712;2023-08-07T12:18:51;99449.88;;;20.83;47.56
54306;BME280;66145;45.188;5.712;2023-08-07T12:21:22;99443.91;;;20.90;47.45
54306;BME280;66145;45.188;5.712;2023-08-07T12:23:49;99445.38;;;20.78;47.95
54306;BME280;66145;45.188;5.712;2023-08-07T12:26:16;99449.72;;;20.79;48.32
54306;BME280;66145;45.188;5.712;2023-08-07T12:28:42;99434.81;;;20.72;47.69
54306;BME280;66145;45.188;5.712;2023-08-07T12:31:07;99448.75;;;20.84;47.26
54306;BME280;66145;45.188;5.712;2023-08-07T12:33:34;99445.38;;;20.87;46.69
54306;BME280;66145;45.188;5.712;2023-08-07T12:35:59;99435.66;;;20.81;47.63
54306;BME280;66145;45.188;5.712;2023-08-07T12:38:25;99427.25;;;20.77;47.64
54306;BME280;66145;45.188;5.712;2023-08-07T12:40:51;99441.78;;;20.87;47.48
54306;BME280;66145;45.188;5.712;2023-08-07T12:43:16;99445.03;;;20.80;46.92
54306;BME280;66145;45.188;5.712;2023-08-07T12:45:42;99443.91;;;20.81;46.70
54306;BME280;66145;45.188;5.712;2023-08-07T12:48:07;99434.38;;;20.78;46.19
54306;BME280;66145;45.188;5.712;2023-08-07T12:50:33;99442.47;;;20.84;45.88
54306;BME280;66145;45.188;5.712;2023-08-07T12:52:59;99431.94;;;20.77;46.25
54306;BME280;66145;45.188;5.712;2023-08-07T12:55:24;99402.63;;;20.55;46.41
54306;BME280;66145;45.188;5.712;2023-08-07T12:57:52;99434.84;;;20.80;46.79
54306;BME280;66145;45.188;5.712;2023-08-07T13:00:17;99404.25;;;20.64;46.76
54306;BME280;66145;45.188;5.712;2023-08-07T13:02:45;99425.44;;;20.73;45.90
54306;BME280;66145;45.188;5.712;2023-08-07T13:05:11;99434.22;;;20.84;46.74